createdAt,value
2022-10-05T06:15:05.767Z,100.00
2022-10-05T06:25:05.665Z,100.00
2022-10-05T06:35:05.850Z,100.00
2022-10-05T06:45:05.867Z,100.00
2022-10-05T06:55:07.083Z,100.00
2022-10-05T07:05:05.893Z,100.00
2022-10-05T07:15:06.005Z,100.00
2022-10-05T07:25:05.955Z,100.00
2022-10-05T07:35:05.923Z,100.00
2022-10-05T07:45:05.854Z,100.00
2022-10-05T07:55:05.953Z,100.00
2022-10-05T08:05:05.912Z,100.00
2022-10-05T08:15:06.091Z,100.00
2022-10-05T08:25:06.242Z,100.00
2022-10-05T08:35:06.139Z,100.00
2022-10-05T08:45:06.224Z,100.00
2022-10-05T08:55:06.326Z,100.00
2022-10-05T09:05:06.194Z,100.00
2022-10-05T09:15:25.025Z,100.00
2022-10-05T09:25:06.350Z,100.00
2022-10-05T09:35:06.191Z,100.00
2022-10-05T09:45:06.254Z,100.00
2022-10-05T09:55:06.234Z,100.00
2022-10-05T10:05:06.294Z,100.00
2022-10-05T10:15:06.235Z,100.00
2022-10-05T10:25:06.323Z,100.00
2022-10-05T10:35:06.293Z,100.00
2022-10-05T10:45:06.143Z,100.00
2022-10-05T10:55:06.433Z,100.00
2022-10-05T11:05:06.391Z,100.00
2022-10-05T11:15:06.343Z,100.00
2022-10-05T11:25:06.412Z,100.00
2022-10-05T11:35:06.289Z,100.00
2022-10-05T11:45:06.224Z,98.35
2022-10-05T11:55:10.754Z,96.81
2022-10-05T12:05:06.183Z,96.10
2022-10-05T12:15:06.215Z,94.98
2022-10-05T12:25:06.291Z,94.57
2022-10-05T12:35:06.307Z,91.77
2022-10-05T12:45:06.315Z,89.79
2022-10-05T12:55:06.283Z,87.47
2022-10-05T13:05:06.338Z,87.25
2022-10-05T13:15:06.324Z,85.81
2022-10-05T13:25:06.176Z,84.39
2022-10-05T13:35:11.257Z,80.57
2022-10-05T13:45:06.538Z,80.97
2022-10-05T13:55:06.454Z,77.68
2022-10-05T14:05:06.357Z,77.59
2022-10-05T14:15:06.492Z,78.28
2022-10-05T14:25:06.476Z,79.84
2022-10-05T14:35:06.574Z,78.65
2022-10-05T14:45:06.275Z,78.92
2022-10-05T14:55:06.582Z,80.07
2022-10-05T15:05:06.623Z,78.23
2022-10-05T15:15:06.616Z,77.68
2022-10-05T15:25:06.697Z,77.38
2022-10-05T15:35:06.586Z,76.34
2022-10-05T15:45:06.601Z,77.09
2022-10-05T15:55:06.654Z,77.04
2022-10-05T16:05:06.502Z,75.77
2022-10-05T16:15:06.587Z,79.75
2022-10-05T16:25:06.557Z,84.59
2022-10-05T16:35:06.711Z,87.87
2022-10-05T16:45:06.861Z,92.02
2022-10-05T16:55:06.782Z,95.05
2022-10-05T17:05:06.621Z,96.39
2022-10-05T17:15:06.685Z,98.83
2022-10-05T17:25:06.751Z,99.93
2022-10-05T17:35:06.685Z,100.00
2022-10-05T17:45:06.717Z,100.00
2022-10-05T17:55:06.839Z,100.00
2022-10-05T18:05:06.753Z,100.00
2022-10-05T18:15:06.631Z,100.00
2022-10-05T18:25:06.845Z,100.00
2022-10-05T18:35:06.699Z,100.00
2022-10-05T18:45:06.769Z,100.00
2022-10-05T18:55:06.693Z,100.00
2022-10-05T19:05:09.205Z,100.00
2022-10-05T19:15:06.849Z,98.98
